Time;durP1;ratioP1;P1;durP2;ratioP2;P2;SDS_P1;SDS_P2;PMS_P1;PMS_P2;Temp;Humidity;BMP_temperature;BMP_pressure;BME280_temperature;BME280_humidity;BME280_pressure;Samples;Min_cycle;Max_cycle;Signal;HPM_P1;HPM_P2
2022/07/22 00:02:26;;;;;;;9.23;7.47;;;28.50;96.70;;;;;;4869889;29;20057;-79
2022/07/22 00:04:54;;;;;;;8.15;7.32;;;28.50;96.70;;;;;;4872602;29;20052;-80
2022/07/22 00:07:22;;;;;;;8.30;7.50;;;28.50;96.70;;;;;;4871517;29;20116;-79
2022/07/22 00:09:50;;;;;;;9.45;8.02;;;28.40;96.70;;;;;;4856217;29;20041;-79
2022/07/22 00:12:18;;;;;;;9.00;8.10;;;28.40;96.70;;;;;;4886825;29;20080;-79
2022/07/22 00:14:48;;;;;;;8.20;7.47;;;28.40;96.70;;;;;;4871315;29;20041;-79
2022/07/22 00:17:16;;;;;;;9.23;7.57;;;28.40;96.70;;;;;;4878782;29;20057;-79
2022/07/22 00:19:44;;;;;;;8.75;7.70;;;28.40;96.70;;;;;;4886248;29;20088;-79
2022/07/22 00:22:12;;;;;;;8.75;7.20;;;28.30;96.70;;;;;;4870663;29;20451;-79
2022/07/22 00:24:40;;;;;;;9.57;7.43;;;28.30;96.70;;;;;;4855310;29;20059;-79
2022/07/22 00:27:08;;;;;;;8.63;7.35;;;28.30;96.70;;;;;;4872415;29;20097;-79
2022/07/22 00:29:36;;;;;;;7.70;7.10;;;28.30;96.70;;;;;;4872007;29;20045;-78
2022/07/22 00:32:06;;;;;;;7.15;6.55;;;28.40;96.70;;;;;;4874269;29;20667;-79
2022/07/22 00:34:34;;;;;;;8.30;7.50;;;28.40;96.70;;;;;;4878551;29;20060;-79
2022/07/22 00:37:04;;;;;;;10.52;7.15;;;28.10;96.70;;;;;;4867122;29;20041;-79
2022/07/22 00:39:33;;;;;;;8.00;6.88;;;28.10;96.70;;;;;;4873237;29;20576;-79
2022/07/22 00:42:02;;;;;;;8.02;7.22;;;28.10;96.70;;;;;;4872191;29;20041;-79
2022/07/22 00:44:31;;;;;;;8.85;7.38;;;28.00;96.70;;;;;;4870521;29;20414;-79
2022/07/22 00:47:07;;;;;;;8.75;6.82;;;28.00;96.70;;;;;;4869985;29;20128;-79
2022/07/22 00:49:35;;;;;;;7.43;6.72;;;28.00;96.70;;;;;;4871228;29;20053;-79
2022/07/22 00:52:05;;;;;;;9.13;7.03;;;28.00;96.70;;;;;;4855430;29;20045;-79
2022/07/22 00:54:37;;;;;;;8.13;7.13;;;28.00;96.70;;;;;;4885322;29;20149;-79
2022/07/22 00:57:05;;;;;;;11.07;7.43;;;27.90;96.70;;;;;;4870738;29;20051;-78
2022/07/22 00:59:33;;;;;;;7.68;6.85;;;28.00;96.70;;;;;;4854924;29;20049;-79
2022/07/22 01:02:01;;;;;;;10.15;7.25;;;28.00;96.70;;;;;;4870065;29;20049;-78
2022/07/22 01:04:31;;;;;;;8.23;7.45;;;28.10;96.70;;;;;;4870746;29;20124;-79
2022/07/22 01:06:59;;;;;;;8.63;7.45;;;28.00;96.70;;;;;;4870080;29;20493;-79
2022/07/22 01:09:27;;;;;;;8.20;7.40;;;27.90;96.70;;;;;;4875730;29;20101;-79
2022/07/22 01:11:55;;;;;;;8.52;7.00;;;27.90;96.70;;;;;;4870199;29;20049;-80
2022/07/22 01:14:23;;;;;;;7.13;6.55;;;28.00;96.70;;;;;;4873787;29;20048;-79
2022/07/22 01:16:51;;;;;;;8.13;7.43;;;28.00;96.70;;;;;;4854192;29;20089;-79
2022/07/22 01:19:19;;;;;;;8.15;7.15;;;27.90;96.70;;;;;;4886115;29;20056;-79
2022/07/22 01:21:49;;;;;;;8.30;7.40;;;27.80;96.70;;;;;;4869600;29;20044;-78
2022/07/22 01:24:17;;;;;;;9.38;6.95;;;27.80;96.70;;;;;;4872832;29;20057;-78
2022/07/22 01:26:45;;;;;;;12.13;7.93;;;27.70;96.70;;;;;;4870247;29;20037;-78
2022/07/22 01:29:13;;;;;;;7.32;6.60;;;27.70;96.70;;;;;;4889409;29;20365;-78
2022/07/22 01:31:41;;;;;;;8.52;7.00;;;27.60;96.70;;;;;;4870031;29;20085;-78
2022/07/22 01:34:09;;;;;;;8.75;7.28;;;27.60;96.70;;;;;;4866523;29;20129;-78
2022/07/22 01:36:37;;;;;;;10.50;7.90;;;27.40;96.70;;;;;;4876143;29;20546;-78
2022/07/22 01:39:07;;;;;;;8.77;7.75;;;27.40;96.70;;;;;;4875529;29;20057;-78
2022/07/22 01:41:35;;;;;;;10.57;7.32;;;27.40;96.70;;;;;;4873392;29;20059;-79
2022/07/22 01:44:03;;;;;;;8.10;7.28;;;27.30;96.70;;;;;;4875479;29;20068;-79
2022/07/22 01:46:31;;;;;;;9.60;6.78;;;27.30;96.70;;;;;;4889566;29;20052;-79
2022/07/22 01:49:00;;;;;;;8.30;7.50;;;27.30;96.70;;;;;;4873647;29;20468;-79
2022/07/22 01:51:33;;;;;;;8.27;7.03;;;27.30;96.70;;;;;;4874684;29;20061;-79
2022/07/22 01:54:01;;;;;;;7.95;6.97;;;27.30;96.70;;;;;;4859808;29;20147;-78
2022/07/22 01:56:32;;;;;;;7.95;7.00;;;27.20;96.70;;;;;;4859222;29;20404;-78
2022/07/22 01:59:00;;;;;;;7.40;6.70;;;27.20;96.70;;;;;;4857991;29;20056;-79
2022/07/22 02:01:30;;;;;;;11.05;6.88;;;27.30;96.70;;;;;;4857623;29;20142;-78
2022/07/22 02:04:28;;;;;;;8.50;7.55;;;27.30;96.70;;;;;;4860871;29;20061;-79
2022/07/22 02:06:56;;;;;;;7.55;6.80;;;27.20;96.70;;;;;;4866312;29;20072;-79
2022/07/22 02:09:24;;;;;;;7.10;6.50;;;27.20;96.70;;;;;;4873378;29;20072;-79
2022/07/22 02:11:55;;;;;;;8.35;7.55;;;27.20;96.70;;;;;;4869659;29;20092;-79
2022/07/22 02:14:24;;;;;;;8.20;7.40;;;27.20;96.70;;;;;;4873246;29;20460;-78
2022/07/22 02:16:52;;;;;;;7.90;7.13;;;27.20;96.70;;;;;;4862016;29;20049;-79
2022/07/22 02:19:20;;;;;;;7.97;7.18;;;27.10;96.70;;;;;;4871783;29;20064;-79
2022/07/22 02:21:48;;;;;;;8.95;7.53;;;27.00;96.70;;;;;;4870411;29;20912;-78
2022/07/22 02:24:16;;;;;;;9.68;7.18;;;27.00;96.70;;;;;;4870350;29;20061;-79
2022/07/22 02:26:47;;;;;;;8.07;6.97;;;27.10;96.70;;;;;;4866681;29;20049;-78
2022/07/22 02:29:17;;;;;;;7.47;6.80;;;27.10;96.70;;;;;;4857485;29;20137;-78
2022/07/22 02:31:46;;;;;;;9.75;7.38;;;27.00;96.70;;;;;;4871617;29;20171;-79
2022/07/22 02:34:14;;;;;;;7.72;6.97;;;26.90;96.70;;;;;;4872461;29;20041;-78
2022/07/22 02:36:42;;;;;;;8.68;7.40;;;26.90;96.70;;;;;;4869903;29;20053;-78
2022/07/22 02:39:10;;;;;;;8.48;7.63;;;26.90;96.70;;;;;;4871119;29;20144;-79
2022/07/22 02:41:40;;;;;;;8.80;7.28;;;26.90;96.70;;;;;;4868483;29;20049;-79
2022/07/22 02:44:09;;;;;;;8.88;7.88;;;26.80;96.70;;;;;;4886953;29;20516;-79
2022/07/22 02:46:39;;;;;;;8.93;7.82;;;26.80;96.70;;;;;;4869740;29;20549;-79
2022/07/22 02:49:18;;;;;;;8.32;6.93;;;26.60;96.70;;;;;;4880209;29;20077;-79
2022/07/22 02:51:47;;;;;;;10.13;7.78;;;26.50;96.70;;;;;;4869934;29;20057;-78
2022/07/22 02:54:17;;;;;;;10.05;7.82;;;26.50;96.70;;;;;;4877997;29;20651;-79
2022/07/22 02:56:45;;;;;;;8.52;7.60;;;26.50;96.70;;;;;;4857524;29;20093;-79
2022/07/22 02:59:14;;;;;;;9.20;7.43;;;26.60;96.70;;;;;;4859366;29;20052;-79
2022/07/22 03:01:44;;;;;;;9.27;7.97;;;26.60;96.70;;;;;;4872409;29;20415;-78
2022/07/22 03:04:12;;;;;;;9.13;6.82;;;26.60;96.70;;;;;;4886367;29;20064;-78
2022/07/22 03:06:41;;;;;;;8.93;7.03;;;26.70;96.70;;;;;;4888404;29;20057;-78
2022/07/22 03:09:14;;;;;;;8.13;7.32;;;26.70;96.70;;;;;;4857259;29;20109;-78
2022/07/22 03:11:44;;;;;;;8.23;7.35;;;26.80;96.70;;;;;;4872578;29;20045;-79
2022/07/22 03:14:13;;;;;;;8.63;7.45;;;26.80;96.70;;;;;;4870641;29;20084;-79
2022/07/22 03:16:43;;;;;;;8.68;7.25;;;26.80;96.70;;;;;;4856114;29;20048;-78
2022/07/22 03:19:11;;;;;;;8.63;7.10;;;26.80;96.70;;;;;;4877638;29;20053;-78
2022/07/22 03:21:40;;;;;;;10.80;7.78;;;26.90;96.70;;;;;;4855676;29;20049;-78
2022/07/22 03:24:08;;;;;;;10.23;7.57;;;27.00;96.70;;;;;;4872237;29;20049;-78
2022/07/22 03:26:36;;;;;;;8.88;6.82;;;27.00;96.70;;;;;;4871823;29;20124;-78
2022/07/22 03:29:07;;;;;;;7.75;6.90;;;26.90;96.70;;;;;;4864656;29;20528;-78
2022/07/22 03:31:36;;;;;;;8.73;6.70;;;26.80;96.70;;;;;;4870577;29;20052;-78
2022/07/22 03:34:06;;;;;;;9.07;7.43;;;26.90;96.70;;;;;;4870257;29;20053;-79
2022/07/22 03:36:38;;;;;;;7.70;6.90;;;27.00;96.70;;;;;;4872246;29;20052;-78
2022/07/22 03:39:08;;;;;;;8.38;7.47;;;26.90;96.70;;;;;;4856899;29;20531;-78
2022/07/22 03:41:36;;;;;;;6.70;6.10;;;27.00;96.70;;;;;;4872939;29;20870;-78
2022/07/22 03:44:04;;;;;;;8.60;6.75;;;27.00;96.70;;;;;;4869164;29;20112;-78
2022/07/22 03:46:32;;;;;;;7.60;6.80;;;27.00;96.70;;;;;;4869537;29;20335;-79
2022/07/22 03:49:01;;;;;;;7.30;6.65;;;27.10;96.70;;;;;;4867295;29;20053;-78
2022/07/22 03:51:31;;;;;;;8.82;7.05;;;27.10;96.70;;;;;;4868364;29;20102;-78
2022/07/22 03:54:02;;;;;;;7.60;6.07;;;27.00;96.70;;;;;;4872536;29;20055;-78
2022/07/22 03:56:30;;;;;;;9.35;6.53;;;27.00;96.70;;;;;;4886607;29;20361;-78
2022/07/22 03:58:58;;;;;;;8.05;7.15;;;27.10;96.70;;;;;;4852835;29;20466;-78
2022/07/22 04:01:27;;;;;;;7.93;7.10;;;27.10;96.70;;;;;;4866130;29;20084;-78
2022/07/22 04:03:55;;;;;;;10.05;7.38;;;27.10;96.70;;;;;;4870007;29;20144;-79
2022/07/22 04:06:37;;;;;;;7.97;7.03;;;27.10;96.70;;;;;;4871979;29;20433;-77
2022/07/22 04:09:11;;;;;;;8.32;7.30;;;27.20;96.70;;;;;;4871691;29;20156;-79
2022/07/22 04:11:39;;;;;;;8.95;7.45;;;27.20;96.70;;;;;;4869955;29;20667;-78
2022/07/22 04:14:09;;;;;;;11.85;7.95;;;27.30;96.70;;;;;;4855503;29;20135;-78
2022/07/22 04:16:37;;;;;;;13.77;9.00;;;27.30;96.70;;;;;;4871727;29;20059;-78
2022/07/22 04:19:10;;;;;;;16.48;11.15;;;27.20;96.70;;;;;;4869030;29;20101;-78
2022/07/22 04:21:51;;;;;;;16.05;10.18;;;27.20;96.70;;;;;;4869732;29;20144;-78
2022/07/22 04:24:21;;;;;;;29.58;17.02;;;27.30;96.70;;;;;;4871161;29;20464;-77
2022/07/22 04:26:49;;;;;;;29.35;18.30;;;27.30;96.70;;;;;;4855417;29;20049;-78
2022/07/22 04:29:17;;;;;;;29.42;18.85;;;27.20;96.70;;;;;;4871018;29;20587;-78
2022/07/22 04:31:46;;;;;;;30.23;18.42;;;27.00;96.70;;;;;;4868210;29;20148;-78
2022/07/22 04:34:17;;;;;;;29.15;16.70;;;27.00;96.70;;;;;;4866526;29;20588;-78
2022/07/22 04:36:47;;;;;;;32.42;18.17;;;27.00;96.70;;;;;;4868193;29;20057;-78
2022/07/22 04:39:18;;;;;;;32.40;19.45;;;27.00;96.70;;;;;;4886370;29;20527;-78
2022/07/22 04:41:54;;;;;;;41.78;21.70;;;27.10;96.70;;;;;;4851283;29;20049;-78
2022/07/22 04:44:23;;;;;;;34.03;20.58;;;27.10;96.70;;;;;;4885426;29;20053;-78
2022/07/22 04:46:51;;;;;;;40.03;21.52;;;27.00;96.70;;;;;;4886239;29;20057;-78
2022/07/22 04:49:20;;;;;;;39.28;21.90;;;27.00;96.70;;;;;;4853634;29;20049;-77
2022/07/22 04:51:48;;;;;;;41.47;22.73;;;26.90;96.70;;;;;;4871191;29;20147;-77
2022/07/22 04:54:27;;;;;;;44.72;23.13;;;27.00;96.70;;;;;;4867241;29;20100;-78
2022/07/22 04:56:58;;;;;;;45.53;23.98;;;27.00;96.70;;;;;;4871123;29;20056;-78
2022/07/22 04:59:26;;;;;;;47.45;23.58;;;27.00;96.70;;;;;;4869856;29;20453;-77
2022/07/22 05:01:54;;;;;;;43.72;23.45;;;27.00;96.70;;;;;;4871139;29;20055;-77
2022/07/22 05:04:23;;;;;;;44.20;22.20;;;27.00;96.70;;;;;;4869002;29;20140;-78
2022/07/22 05:06:52;;;;;;;42.17;21.45;;;27.00;96.70;;;;;;4855985;29;20103;-78
2022/07/22 05:09:21;;;;;;;49.22;22.13;;;27.10;96.70;;;;;;4869268;29;20065;-78
2022/07/22 05:11:51;;;;;;;48.25;22.08;;;27.10;96.70;;;;;;4876839;29;20076;-77
2022/07/22 05:14:22;;;;;;;49.55;22.95;;;27.00;96.70;;;;;;4874326;29;20045;-77
2022/07/22 05:16:50;;;;;;;42.58;21.33;;;27.00;96.70;;;;;;4858419;29;20048;-77
2022/07/22 05:19:19;;;;;;;44.08;21.52;;;26.90;96.70;;;;;;4880270;29;20052;-78
2022/07/22 05:21:47;;;;;;;38.80;20.55;;;27.00;96.70;;;;;;4873911;29;20405;-77
2022/07/22 05:24:15;;;;;;;31.08;19.23;;;27.00;96.70;;;;;;4872601;29;20156;-78
2022/07/22 05:26:44;;;;;;;32.25;18.98;;;26.90;96.70;;;;;;4873785;29;20060;-77
2022/07/22 05:29:13;;;;;;;31.38;18.08;;;26.80;96.70;;;;;;4868045;29;20460;-78
2022/07/22 05:31:41;;;;;;;33.97;19.65;;;26.80;96.70;;;;;;4871609;29;20053;-77
2022/07/22 05:34:09;;;;;;;30.27;18.55;;;26.80;96.70;;;;;;4872922;29;20415;-77
2022/07/22 05:36:45;;;;;;;32.53;20.57;;;26.70;96.70;;;;;;4889034;29;20069;-78
2022/07/22 05:39:14;;;;;;;32.88;19.65;;;26.80;96.70;;;;;;4874567;29;20066;-78
2022/07/22 05:41:43;;;;;;;37.22;20.00;;;26.80;96.70;;;;;;4873501;29;20499;-77
2022/07/22 05:44:13;;;;;;;35.20;20.33;;;26.90;96.70;;;;;;4877683;29;20513;-77
2022/07/22 05:46:41;;;;;;;35.90;21.15;;;27.00;96.70;;;;;;4867953;29;20389;-76
2022/07/22 05:49:09;;;;;;;35.83;19.90;;;27.10;96.70;;;;;;4875664;29;20050;-77
2022/07/22 05:51:50;;;;;;;31.15;20.30;;;27.10;96.70;;;;;;4869280;29;20048;-78
2022/07/22 05:54:20;;;;;;;30.55;19.23;;;27.20;96.70;;;;;;4874637;29;20056;-78
2022/07/22 05:56:48;;;;;;;29.27;18.65;;;27.20;96.70;;;;;;4890148;29;20400;-78
2022/07/22 05:59:17;;;;;;;29.05;19.55;;;27.20;96.70;;;;;;4873396;29;20070;-78
2022/07/22 06:01:45;;;;;;;30.30;18.73;;;27.30;96.70;;;;;;4874830;29;20049;-78
2022/07/22 06:04:40;;;;;;;29.90;17.90;;;27.30;96.70;;;;;;4866275;29;20053;-78
2022/07/22 06:07:09;;;;;;;29.92;17.52;;;27.40;96.70;;;;;;4873469;29;20148;-78
2022/07/22 06:09:39;;;;;;;32.38;18.77;;;27.50;96.70;;;;;;4874089;29;20496;-76
2022/07/22 06:12:07;;;;;;;27.42;17.52;;;27.60;96.70;;;;;;4849173;29;20156;-78
2022/07/22 06:14:38;;;;;;;36.08;18.73;;;27.50;96.70;;;;;;4851894;29;20053;-78
2022/07/22 06:17:06;;;;;;;27.83;17.52;;;27.40;96.70;;;;;;4870750;29;20065;-78
2022/07/22 06:19:35;;;;;;;28.13;18.45;;;27.50;96.70;;;;;;4865175;29;20064;-78
2022/07/22 06:22:04;;;;;;;25.00;13.98;;;27.60;96.70;;;;;;4879786;29;20049;-78
2022/07/22 06:24:32;;;;;;;22.30;15.38;;;27.60;96.70;;;;;;4888954;29;20136;-79
2022/07/22 06:27:01;;;;;;;25.80;14.48;;;27.60;96.70;;;;;;4854379;29;20057;-81
2022/07/22 06:29:33;;;;;;;25.90;14.93;;;27.60;96.70;;;;;;4858320;29;20052;-79
2022/07/22 06:32:05;;;;;;;25.10;17.33;;;27.80;96.70;;;;;;4888832;29;20508;-80
2022/07/22 06:34:33;;;;;;;27.33;18.02;;;27.80;96.70;;;;;;4871155;29;20531;-78
2022/07/22 06:37:05;;;;;;;23.17;16.63;;;27.80;96.70;;;;;;4871316;29;20144;-81
2022/07/22 06:39:34;;;;;;;22.02;15.70;;;27.90;96.70;;;;;;4858231;29;20541;-80
2022/07/22 06:42:17;;;;;;;23.27;15.98;;;28.00;96.70;;;;;;4870862;29;20055;-80
2022/07/22 06:45:21;;;;;;;26.92;17.42;;;28.10;96.70;;;;;;4843863;29;20504;-81
2022/07/22 06:48:14;;;;;;;27.02;18.23;;;28.00;96.70;;;;;;4867060;29;20148;-79
2022/07/22 06:50:42;;;;;;;23.23;16.48;;;27.80;96.70;;;;;;4864136;29;20064;-79
2022/07/22 06:53:17;;;;;;;24.20;15.15;;;27.90;96.70;;;;;;4871580;29;20120;-79
2022/07/22 06:55:46;;;;;;;21.23;14.55;;;27.90;96.70;;;;;;4871682;29;20443;-79
2022/07/22 06:58:15;;;;;;;24.58;14.93;;;28.00;96.70;;;;;;4870791;29;20048;-79
2022/07/22 07:00:44;;;;;;;25.65;15.82;;;28.10;96.70;;;;;;4881742;29;20485;-80
2022/07/22 07:03:25;;;;;;;20.48;15.55;;;28.10;96.70;;;;;;4886788;29;20049;-80
2022/07/22 07:06:10;;;;;;;22.27;14.85;;;28.10;96.70;;;;;;4874310;29;20049;-80
2022/07/22 07:08:57;;;;;;;23.38;15.43;;;28.10;96.70;;;;;;4869406;29;20060;-80
2022/07/22 07:11:28;;;;;;;18.52;14.23;;;28.20;96.70;;;;;;4874000;29;20516;-79
2022/07/22 07:13:57;;;;;;;24.08;16.95;;;28.30;96.70;;;;;;4870749;29;20050;-81
2022/07/22 07:16:26;;;;;;;22.83;15.27;;;28.40;96.70;;;;;;4872868;29;20056;-79
2022/07/22 07:18:56;;;;;;;27.02;16.73;;;28.40;96.70;;;;;;4872260;29;20148;-79
2022/07/22 07:21:27;;;;;;;26.13;17.63;;;28.30;96.70;;;;;;4871284;29;20534;-78
2022/07/22 07:23:56;;;;;;;24.58;17.45;;;28.30;96.70;;;;;;4872746;29;20059;-79
2022/07/22 07:26:26;;;;;;;29.10;17.60;;;28.30;96.70;;;;;;4857867;29;20065;-78
2022/07/22 07:28:55;;;;;;;28.80;17.23;;;28.40;96.70;;;;;;4887930;29;20136;-79
2022/07/22 07:31:37;;;;;;;29.20;18.38;;;28.50;96.70;;;;;;4858246;29;20064;-78
2022/07/22 07:34:14;;;;;;;29.80;18.55;;;28.50;96.70;;;;;;4871666;29;20535;-78
2022/07/22 07:36:42;;;;;;;31.75;20.00;;;28.40;96.70;;;;;;4871956;29;20044;-80
2022/07/22 07:39:14;;;;;;;30.23;18.90;;;28.50;96.70;;;;;;4863901;29;20061;-80
2022/07/22 07:41:43;;;;;;;33.95;21.33;;;28.50;96.70;;;;;;4860503;29;20061;-80
2022/07/22 07:44:18;;;;;;;30.10;18.85;;;28.50;96.70;;;;;;4896992;29;20632;-82
2022/07/22 07:46:46;;;;;;;29.02;19.17;;;28.40;96.70;;;;;;4869562;29;20135;-81
2022/07/22 07:49:16;;;;;;;31.55;19.50;;;28.40;96.70;;;;;;4872392;29;20169;-81
2022/07/22 07:51:45;;;;;;;25.08;18.55;;;28.40;96.70;;;;;;4870661;29;20128;-81
2022/07/22 07:54:14;;;;;;;25.98;17.40;;;28.50;96.70;;;;;;4872630;29;20053;-81
2022/07/22 07:56:46;;;;;;;26.30;18.67;;;28.50;96.70;;;;;;4871757;29;20052;-80
2022/07/22 07:59:16;;;;;;;26.70;18.63;;;28.60;96.70;;;;;;4871868;29;20064;-81
2022/07/22 08:01:56;;;;;;;28.67;18.60;;;28.50;96.70;;;;;;4871065;29;20056;-79
2022/07/22 08:04:37;;;;;;;26.17;17.33;;;28.50;96.70;;;;;;5104772;27;20444;-77
2022/07/22 08:07:17;;;;;;;24.23;17.60;;;28.60;96.70;;;;;;5094800;28;20036;-77
2022/07/22 08:09:49;;;;;;;24.33;16.27;;;28.80;96.70;;;;;;5102841;28;20604;-76
2022/07/22 08:13:12;;;;;;;26.00;17.63;;;28.90;96.70;;;;;;5056821;28;20538;-77
2022/07/22 08:15:41;;;;;;;27.02;17.63;;;29.00;96.70;;;;;;5059652;28;20989;-78
2022/07/22 08:18:17;;;;;;;23.17;16.73;;;29.00;96.70;;;;;;5042853;28;20491;-77
2022/07/22 08:20:47;;;;;;;27.75;15.65;;;29.10;96.70;;;;;;5057820;28;20147;-78
2022/07/22 08:23:17;;;;;;;20.30;16.20;;;29.10;96.70;;;;;;5043997;28;20429;-78
2022/07/22 08:25:47;;;;;;;23.80;15.73;;;29.10;96.70;;;;;;5044714;28;20067;-78
2022/07/22 08:28:16;;;;;;;23.42;16.33;;;29.20;96.70;;;;;;5043825;28;20059;-78
2022/07/22 08:30:44;;;;;;;25.17;17.80;;;29.30;96.70;;;;;;5040711;28;20155;-77
2022/07/22 08:33:13;;;;;;;23.77;15.55;;;29.40;96.70;;;;;;5043546;28;20503;-77
2022/07/22 08:35:43;;;;;;;24.67;17.08;;;29.40;96.70;;;;;;5039737;28;20596;-78
2022/07/22 08:38:13;;;;;;;27.25;17.85;;;29.50;96.70;;;;;;5059408;28;20688;-78
2022/07/22 08:40:42;;;;;;;26.95;17.35;;;29.50;96.70;;;;;;5042924;28;20049;-77
2022/07/22 08:43:11;;;;;;;24.40;17.13;;;29.70;96.70;;;;;;5044084;28;20617;-77
2022/07/22 08:45:41;;;;;;;30.17;20.20;;;29.70;96.70;;;;;;5039394;28;20044;-77
2022/07/22 08:48:09;;;;;;;29.60;18.40;;;29.80;96.70;;;;;;5075622;28;20048;-77
2022/07/22 08:50:44;;;;;;;24.83;16.95;;;29.90;96.70;;;;;;5098555;28;20700;-77
2022/07/22 08:53:26;;;;;;;22.63;16.83;;;30.00;96.70;;;;;;5096273;28;20677;-78
2022/07/22 08:56:00;;;;;;;27.50;17.70;;;30.00;96.70;;;;;;5089484;28;20491;-79
2022/07/22 08:58:30;;;;;;;27.95;18.65;;;30.10;96.70;;;;;;5101905;28;20051;-77
2022/07/22 09:01:11;;;;;;;19.95;15.60;;;30.20;96.70;;;;;;5091210;28;20048;-78
2022/07/22 09:03:49;;;;;;;20.30;14.65;;;30.30;96.70;;;;;;5083175;28;20085;-78
2022/07/22 09:06:19;;;;;;;22.92;15.30;;;30.40;96.70;;;;;;5088445;28;20093;-79
2022/07/22 09:08:54;;;;;;;23.00;16.05;;;30.50;96.70;;;;;;5093425;28;20390;-78
2022/07/22 09:11:41;;;;;;;18.42;14.50;;;30.70;96.70;;;;;;5096980;28;20551;-79
2022/07/22 09:14:44;;;;;;;13.70;11.02;;;30.80;96.70;;;;;;5070800;28;20054;-78
2022/07/22 09:17:39;;;;;;;14.75;11.60;;;30.70;96.70;;;;;;5063441;28;20048;-78
2022/07/22 09:20:27;;;;;;;16.58;12.60;;;30.90;96.70;;;;;;5087608;28;20055;-79
2022/07/22 09:23:21;;;;;;;16.98;12.10;;;31.00;96.70;;;;;;5076845;28;20153;-78
2022/07/22 09:25:53;;;;;;;17.92;12.30;;;31.10;96.70;;;;;;5073144;28;20155;-79
2022/07/22 09:28:54;;;;;;;13.20;11.82;;;31.10;96.70;;;;;;5074421;28;20094;-79
2022/07/22 09:31:30;;;;;;;14.95;11.48;;;31.20;96.70;;;;;;5086508;28;20440;-78
2022/07/22 09:34:27;;;;;;;13.65;10.50;;;31.20;96.70;;;;;;5081180;28;20131;-78
2022/07/22 09:36:57;;;;;;;11.65;9.95;;;31.30;96.70;;;;;;5078212;28;20083;-79
2022/07/22 09:39:29;;;;;;;11.70;10.52;;;31.40;96.70;;;;;;5073833;28;20048;-79
2022/07/22 09:42:03;;;;;;;12.45;10.57;;;31.50;96.70;;;;;;5082767;28;20048;-78
2022/07/22 09:44:32;;;;;;;12.23;10.25;;;31.70;96.70;;;;;;5087516;28;20054;-77
2022/07/22 09:47:18;;;;;;;12.25;10.02;;;31.80;96.70;;;;;;5068050;28;20072;-77
2022/07/22 09:50:15;;;;;;;10.35;9.05;;;31.80;96.70;;;;;;5084517;28;20755;-76
2022/07/22 09:53:02;;;;;;;12.43;9.10;;;31.90;96.70;;;;;;5078279;28;20133;-77
2022/07/22 09:55:38;;;;;;;10.10;9.00;;;31.80;96.70;;;;;;5080795;28;20524;-77
2022/07/22 09:58:08;;;;;;;12.52;9.35;;;31.90;96.70;;;;;;5082718;28;20048;-77
2022/07/22 10:00:37;;;;;;;10.57;9.57;;;31.90;96.70;;;;;;5068736;28;20052;-76
2022/07/22 10:03:08;;;;;;;10.32;9.32;;;31.90;96.70;;;;;;5074976;28;20113;-78
2022/07/22 10:05:38;;;;;;;11.30;9.98;;;32.10;96.70;;;;;;5085446;28;20068;-77
2022/07/22 10:08:08;;;;;;;11.82;9.43;;;32.20;96.70;;;;;;5076995;28;20806;-77
2022/07/22 10:10:39;;;;;;;11.48;9.30;;;32.30;96.70;;;;;;5085514;28;20048;-77
2022/07/22 10:13:13;;;;;;;12.27;10.63;;;32.30;96.70;;;;;;5069149;28;20074;-76
2022/07/22 10:15:42;;;;;;;10.68;9.50;;;32.30;96.70;;;;;;5083784;28;20058;-76
2022/07/22 10:18:15;;;;;;;11.55;9.80;;;32.30;96.70;;;;;;5088580;28;20124;-76
2022/07/22 10:20:46;;;;;;;10.43;9.52;;;32.40;96.70;;;;;;5081920;28;20044;-77
2022/07/22 10:23:16;;;;;;;10.65;8.98;;;32.60;96.70;;;;;;5070447;28;20079;-77
2022/07/22 10:25:54;;;;;;;10.10;8.52;;;32.70;96.70;;;;;;5072439;28;20039;-76
2022/07/22 10:28:26;;;;;;;11.95;8.93;;;32.80;96.70;;;;;;5069525;28;20418;-76
2022/07/22 10:31:20;;;;;;;10.32;8.15;;;32.90;96.70;;;;;;5062332;28;20412;-76
2022/07/22 10:33:50;;;;;;;9.50;7.95;;;33.00;96.70;;;;;;5075416;28;20063;-75
2022/07/22 10:36:31;;;;;;;9.65;8.18;;;33.00;96.70;;;;;;5080541;28;20464;-76
2022/07/22 10:39:06;;;;;;;9.38;8.25;;;33.20;96.70;;;;;;5071937;28;20121;-76
2022/07/22 10:41:36;;;;;;;9.50;8.32;;;33.30;96.70;;;;;;5085597;28;20066;-76
2022/07/22 10:44:06;;;;;;;8.55;7.70;;;33.50;96.70;;;;;;5067750;28;20131;-76
2022/07/22 10:46:52;;;;;;;11.48;8.57;;;33.60;96.70;;;;;;5080600;28;20501;-76
2022/07/22 10:49:22;;;;;;;12.15;8.75;;;33.80;96.70;;;;;;5071047;28;20055;-76
2022/07/22 10:52:16;;;;;;;11.45;8.38;;;33.90;96.70;;;;;;5075194;28;20040;-76
2022/07/22 10:55:17;;;;;;;9.05;8.05;;;33.90;96.70;;;;;;5048661;28;20052;-76
2022/07/22 10:57:46;;;;;;;9.55;8.32;;;34.10;96.70;;;;;;5075538;28;20049;-76
2022/07/22 11:00:17;;;;;;;11.25;8.93;;;34.10;96.70;;;;;;5059463;28;20097;-76
2022/07/22 11:02:47;;;;;;;11.07;8.30;;;34.30;96.70;;;;;;5070985;28;20048;-75
2022/07/22 11:05:30;;;;;;;9.93;8.57;;;34.30;96.70;;;;;;5081047;28;20139;-78
2022/07/22 11:07:58;;;;;;;9.85;8.18;;;34.40;96.70;;;;;;5081663;28;20421;-76
2022/07/22 11:10:27;;;;;;;9.48;7.78;;;34.40;96.70;;;;;;5084041;28;20134;-77
2022/07/22 11:12:55;;;;;;;10.63;7.60;;;34.50;96.70;;;;;;5084861;28;20056;-77
2022/07/22 11:15:27;;;;;;;12.52;7.38;;;34.60;96.70;;;;;;5086456;28;20067;-77
2022/07/22 11:17:57;;;;;;;12.23;7.03;;;34.80;96.70;;;;;;5081671;28;20044;-76
2022/07/22 11:20:26;;;;;;;8.85;7.60;;;34.80;96.70;;;;;;5077106;28;20048;-76
2022/07/22 11:23:11;;;;;;;8.43;7.22;;;34.70;96.70;;;;;;5065985;28;20095;-76
2022/07/22 11:25:48;;;;;;;8.02;6.43;;;34.80;96.70;;;;;;5086075;28;20044;-75
2022/07/22 11:28:18;;;;;;;9.05;7.43;;;34.80;96.70;;;;;;5065331;28;20602;-76
2022/07/22 11:33:45;;;;;;;9.45;6.85;;;34.80;96.70;;;;;;5125987;27;20777;-75
2022/07/22 11:36:16;;;;;;;8.60;6.60;;;35.10;96.70;;;;;;5106248;28;20044;-76
2022/07/22 11:38:47;;;;;;;8.27;6.70;;;35.20;96.70;;;;;;5109671;28;20527;-76
2022/07/22 11:41:21;;;;;;;9.32;7.28;;;35.20;96.70;;;;;;5103906;28;20071;-75
2022/07/22 11:43:50;;;;;;;8.05;6.20;;;35.30;96.70;;;;;;5116231;28;20039;-76
2022/07/22 11:46:20;;;;;;;10.05;6.57;;;35.40;96.70;;;;;;5082577;28;20044;-76
2022/07/22 11:48:51;;;;;;;7.72;5.97;;;35.50;96.70;;;;;;5098522;28;20110;-76
2022/07/22 11:51:19;;;;;;;7.40;6.05;;;35.60;94.80;;;;;;5102921;28;20089;-76
2022/07/22 11:53:48;;;;;;;9.32;6.10;;;35.70;94.50;;;;;;5112659;28;20050;-76
2022/07/22 11:56:16;;;;;;;10.90;5.80;;;35.90;95.10;;;;;;5104362;27;20580;-76
2022/07/22 11:58:45;;;;;;;8.00;5.20;;;36.00;93.00;;;;;;5106732;28;20093;-77
2022/07/22 12:01:16;;;;;;;6.80;6.10;;;36.00;91.40;;;;;;5098947;28;20044;-77
2022/07/22 12:03:47;;;;;;;5.13;4.70;;;35.90;90.20;;;;;;5106612;28;20142;-76
2022/07/22 12:06:19;;;;;;;6.70;4.85;;;36.00;86.20;;;;;;5101050;28;20071;-77
2022/07/22 12:08:49;;;;;;;6.43;5.47;;;36.20;87.00;;;;;;5105423;28;20046;-76
2022/07/22 12:11:21;;;;;;;8.57;4.93;;;36.20;87.80;;;;;;5102915;28;20032;-76
2022/07/22 12:13:53;;;;;;;;;;;36.30;87.40;;;;;;5111180;27;20066;-77
2022/07/22 12:16:24;;;;;;;6.68;4.82;;;36.40;85.00;;;;;;5089713;28;20860;-77
2022/07/22 12:18:55;;;;;;;6.72;5.15;;;36.50;84.90;;;;;;5102504;28;20044;-77
2022/07/22 12:21:27;;;;;;;7.13;5.18;;;36.60;85.30;;;;;;5104105;28;20052;-77
2022/07/22 12:23:57;;;;;;;5.95;5.10;;;36.60;86.30;;;;;;5096660;28;20052;-75
2022/07/22 12:26:41;;;;;;;6.03;5.13;;;36.50;84.90;;;;;;5106286;28;20108;-76
2022/07/22 12:29:47;;;;;;;5.90;4.70;;;36.60;85.60;;;;;;5091685;28;20531;-76
2022/07/22 12:32:18;;;;;;;6.18;5.03;;;36.70;84.90;;;;;;5084781;28;20075;-76
2022/07/22 12:34:47;;;;;;;6.55;5.05;;;36.70;84.20;;;;;;5105530;28;20065;-76
2022/07/22 12:37:21;;;;;;;6.97;5.15;;;36.70;85.90;;;;;;5105313;28;20075;-76
2022/07/22 12:39:58;;;;;;;6.50;5.85;;;36.70;87.10;;;;;;5102386;28;20039;-76
2022/07/22 12:42:29;;;;;;;8.45;5.63;;;36.70;87.40;;;;;;5105755;28;20048;-78
2022/07/22 12:45:05;;;;;;;8.40;6.15;;;36.70;88.20;;;;;;5090927;28;20131;-77
2022/07/22 12:47:45;;;;;;;7.85;6.15;;;36.80;89.20;;;;;;5085619;28;20159;-76
2022/07/22 12:50:38;;;;;;;7.60;6.00;;;36.80;88.60;;;;;;5089700;28;20040;-78
2022/07/22 12:53:09;;;;;;;6.45;5.85;;;36.80;88.00;;;;;;5092707;28;21465;-77
2022/07/22 12:55:44;;;;;;;6.90;6.07;;;36.80;88.20;;;;;;5090350;28;20044;-76
2022/07/22 12:58:13;;;;;;;9.27;5.80;;;36.80;88.30;;;;;;5087921;28;20161;-76
2022/07/22 13:00:45;;;;;;;6.90;6.20;;;36.80;87.70;;;;;;5092773;28;20048;-76
2022/07/22 13:03:15;;;;;;;9.65;6.05;;;36.70;89.50;;;;;;5086838;28;20052;-75
2022/07/22 13:05:43;;;;;;;8.43;5.85;;;36.70;89.40;;;;;;5081039;28;20056;-75
2022/07/22 13:08:13;;;;;;;6.93;5.75;;;36.60;88.10;;;;;;5087855;28;20405;-77